createdAt,value
2023-02-27T00:00:51.946Z,19.87
2023-02-27T00:01:52.006Z,19.88
2023-02-27T00:02:52.059Z,19.90
2023-02-27T00:03:52.094Z,19.88
2023-02-27T00:04:52.161Z,19.88
2023-02-27T00:05:52.184Z,19.90
2023-02-27T00:06:51.213Z,19.87
2023-02-27T00:07:51.245Z,19.87
2023-02-27T00:08:52.402Z,19.88
2023-02-27T00:09:52.314Z,19.88
2023-02-27T00:10:51.410Z,19.91
2023-02-27T00:11:51.428Z,19.88
2023-02-27T00:12:52.435Z,19.90
2023-02-27T00:13:52.470Z,19.88
2023-02-27T00:14:52.508Z,19.90
2023-02-27T00:15:52.584Z,19.91
2023-02-27T00:16:52.762Z,19.88
2023-02-27T00:17:51.592Z,19.88
2023-02-27T00:18:52.628Z,19.87
2023-02-27T00:19:52.664Z,19.88
2023-02-27T00:20:51.723Z,19.88
2023-02-27T00:21:52.740Z,19.90
2023-02-27T00:22:51.807Z,19.88
2023-02-27T00:23:52.834Z,19.90
2023-02-27T00:24:52.839Z,19.90
2023-02-27T00:25:52.923Z,19.88
2023-02-27T00:26:52.955Z,19.90
2023-02-27T00:27:52.973Z,19.90
2023-02-27T00:28:52.029Z,19.90
2023-02-27T00:29:53.061Z,19.88
2023-02-27T00:30:53.103Z,19.90
2023-02-27T00:31:53.206Z,19.88
2023-02-27T00:32:53.112Z,19.90
2023-02-27T00:33:53.240Z,19.90
2023-02-27T00:34:53.250Z,19.91
2023-02-27T00:35:53.302Z,19.88
2023-02-27T00:36:53.285Z,19.91
2023-02-27T00:37:52.318Z,19.93
2023-02-27T00:38:53.380Z,19.88
2023-02-27T00:39:53.384Z,19.88
2023-02-27T00:40:53.476Z,19.87
2023-02-27T00:41:53.442Z,19.88
2023-02-27T00:42:53.494Z,19.90
2023-02-27T00:43:53.549Z,19.90
2023-02-27T00:44:53.568Z,19.90
2023-02-27T00:45:53.586Z,19.88
2023-02-27T00:46:52.679Z,19.88
2023-02-27T00:47:52.657Z,19.88
2023-02-27T00:48:53.713Z,19.87
2023-02-27T00:49:53.713Z,19.88
2023-02-27T00:50:53.824Z,19.88
2023-02-27T00:51:53.787Z,19.88
2023-02-27T00:52:53.816Z,19.87
2023-02-27T00:53:53.879Z,19.91
2023-02-27T00:54:53.888Z,19.90
2023-02-27T00:55:53.907Z,19.88
2023-02-27T00:56:54.006Z,19.88
2023-02-27T00:57:54.037Z,19.87
2023-02-27T00:58:53.022Z,19.88
2023-02-27T00:59:53.072Z,19.87
2023-02-27T01:00:54.134Z,19.88
2023-02-27T01:01:53.144Z,19.87
2023-02-27T01:02:53.257Z,19.87
2023-02-27T01:03:54.215Z,19.86
2023-02-27T01:04:53.269Z,19.86
2023-02-27T01:05:53.358Z,19.88
2023-02-27T01:06:54.347Z,19.86
2023-02-27T01:07:54.384Z,19.87
2023-02-27T01:08:54.426Z,19.87
2023-02-27T01:09:54.473Z,19.86
2023-02-27T01:10:54.521Z,19.86
2023-02-27T01:11:54.510Z,19.87
2023-02-27T01:12:53.558Z,19.84
2023-02-27T01:13:54.582Z,19.87
2023-02-27T01:14:53.644Z,19.86
2023-02-27T01:15:53.674Z,19.87
2023-02-27T01:16:54.715Z,19.86
2023-02-27T01:17:54.749Z,19.86
2023-02-27T01:18:54.791Z,19.87
2023-02-27T01:19:54.906Z,19.84
2023-02-27T01:20:54.881Z,19.86
2023-02-27T01:21:54.905Z,19.87
2023-02-27T01:22:54.971Z,19.87
2023-02-27T01:23:55.007Z,19.87
2023-02-27T01:24:55.067Z,19.84
2023-02-27T01:25:55.081Z,19.86
2023-02-27T01:26:55.151Z,19.84
2023-02-27T01:27:54.183Z,19.84
2023-02-27T01:28:55.216Z,19.84
2023-02-27T01:29:55.253Z,19.84
2023-02-27T01:30:55.379Z,19.86
2023-02-27T01:31:55.414Z,19.86
2023-02-27T01:32:55.422Z,19.86
2023-02-27T01:33:55.484Z,19.84
2023-02-27T01:34:55.461Z,19.83
2023-02-27T01:35:55.512Z,19.87
2023-02-27T01:36:55.558Z,19.83
2023-02-27T01:37:54.570Z,19.83
2023-02-27T01:38:54.611Z,19.84
2023-02-27T01:39:55.659Z,19.84
2023-02-27T01:40:54.701Z,19.84
2023-02-27T01:41:55.840Z,19.84
2023-02-27T01:42:55.827Z,19.84
2023-02-27T01:43:55.871Z,19.86
2023-02-27T01:44:55.860Z,19.83
2023-02-27T01:45:55.939Z,19.86
2023-02-27T01:46:55.965Z,19.83
2023-02-27T01:47:56.039Z,19.83
2023-02-27T01:48:56.022Z,19.84
2023-02-27T01:49:56.052Z,19.84
2023-02-27T01:52:14.251Z,19.80
2023-02-27T01:53:15.287Z,19.81
2023-02-27T01:54:15.241Z,19.81
2023-02-27T01:55:15.225Z,19.81
2023-02-27T01:56:15.208Z,19.81
2023-02-27T01:57:15.266Z,19.83
2023-02-27T01:58:15.228Z,19.83
2023-02-27T01:59:15.192Z,19.86
2023-02-27T02:00:15.187Z,19.84
2023-02-27T02:01:14.212Z,19.84
2023-02-27T02:02:15.220Z,19.84
2023-02-27T02:03:15.205Z,19.83
2023-02-27T02:04:15.264Z,19.86
2023-02-27T02:05:15.323Z,19.83
2023-02-27T02:06:15.365Z,19.84
2023-02-27T02:07:15.374Z,19.84
2023-02-27T02:08:15.426Z,19.83
2023-02-27T02:09:14.471Z,19.84
2023-02-27T02:10:14.514Z,19.84
2023-02-27T02:11:15.569Z,19.83
2023-02-27T02:12:15.643Z,19.84
2023-02-27T02:13:15.662Z,19.83
2023-02-27T02:14:15.764Z,19.84
2023-02-27T02:15:15.770Z,19.83
2023-02-27T02:16:15.808Z,19.84
2023-02-27T02:17:15.890Z,19.86
2023-02-27T02:18:15.952Z,19.84
2023-02-27T02:19:14.951Z,19.84
2023-02-27T02:20:16.013Z,19.84
2023-02-27T02:21:16.058Z,19.84
2023-02-27T02:22:16.092Z,19.84
2023-02-27T02:23:15.134Z,19.84
2023-02-27T02:24:16.216Z,19.86
2023-02-27T02:25:16.243Z,19.84
2023-02-27T02:26:16.268Z,19.84
2023-02-27T02:27:16.310Z,19.84
2023-02-27T02:28:16.356Z,19.83
2023-02-27T02:29:15.410Z,19.83
2023-02-27T02:30:16.460Z,19.80
2023-02-27T02:31:16.627Z,19.81
2023-02-27T02:32:16.579Z,19.83
2023-02-27T02:33:16.584Z,19.81
2023-02-27T02:34:16.641Z,19.81
2023-02-27T02:35:15.692Z,19.84
2023-02-27T02:36:15.744Z,19.80
2023-02-27T02:37:16.808Z,19.83
2023-02-27T02:38:16.831Z,19.81
2023-02-27T02:39:15.884Z,19.81
2023-02-27T02:40:16.974Z,19.83
2023-02-27T02:41:17.004Z,19.83
2023-02-27T02:42:16.073Z,19.83
2023-02-27T02:43:17.109Z,19.81
2023-02-27T02:44:17.166Z,19.81
2023-02-27T02:45:17.179Z,19.83
2023-02-27T02:46:17.326Z,19.83
2023-02-27T02:47:17.262Z,19.80
2023-02-27T02:48:17.322Z,19.83
2023-02-27T02:49:17.419Z,19.81
2023-02-27T02:51:35.619Z,19.78
2023-02-27T02:52:36.603Z,19.81
2023-02-27T02:53:37.588Z,19.80
2023-02-27T02:54:36.556Z,19.80
2023-02-27T02:55:35.543Z,19.80
2023-02-27T02:56:35.546Z,19.84
2023-02-27T02:57:35.618Z,19.80
2023-02-27T02:58:49.590Z,19.83
2023-02-27T02:59:35.579Z,19.81
2023-02-27T03:00:36.578Z,19.81
2023-02-27T03:01:35.595Z,19.81
2023-02-27T03:02:36.530Z,19.84
2023-02-27T03:03:36.506Z,19.81
2023-02-27T03:04:36.577Z,19.80
2023-02-27T03:05:36.514Z,19.81
2023-02-27T03:06:36.489Z,19.84
2023-02-27T03:07:36.541Z,19.83
2023-02-27T03:08:36.518Z,19.78
2023-02-27T03:10:54.682Z,19.78
2023-02-27T03:11:54.667Z,19.81
2023-02-27T03:12:55.669Z,19.80
2023-02-27T03:13:55.674Z,19.77
2023-02-27T03:14:55.652Z,19.78
2023-02-27T03:15:55.724Z,19.81
2023-02-27T03:16:54.654Z,19.80
2023-02-27T03:17:54.615Z,19.80
2023-02-27T03:18:55.617Z,19.81
2023-02-27T03:19:55.641Z,19.80
2023-02-27T03:20:55.675Z,19.80
2023-02-27T03:21:55.587Z,19.81
2023-02-27T03:22:55.588Z,19.81
2023-02-27T03:23:54.576Z,19.80
2023-02-27T03:24:55.587Z,19.78
2023-02-27T03:25:57.891Z,19.80
2023-02-27T03:26:54.643Z,19.78
2023-02-27T03:27:55.639Z,19.80
2023-02-27T03:28:54.637Z,19.78
2023-02-27T03:29:55.628Z,19.78
2023-02-27T03:30:55.720Z,19.80
2023-02-27T03:31:55.704Z,19.80
2023-02-27T03:32:54.627Z,19.81
2023-02-27T03:33:55.579Z,19.80
2023-02-27T03:34:55.584Z,19.78
2023-02-27T03:35:55.596Z,19.78
2023-02-27T03:36:55.579Z,19.76
2023-02-27T03:37:54.546Z,19.78
2023-02-27T03:38:55.538Z,19.78
2023-02-27T03:39:55.617Z,19.77
2023-02-27T03:40:54.538Z,19.78
2023-02-27T03:41:55.526Z,19.77
2023-02-27T03:42:55.514Z,19.78
2023-02-27T03:43:55.508Z,19.80
2023-02-27T03:44:55.502Z,19.77
2023-02-27T03:45:55.488Z,19.77
2023-02-27T03:46:55.478Z,19.80
2023-02-27T03:47:54.491Z,19.78
2023-02-27T03:48:55.488Z,19.77
2023-02-27T03:49:54.482Z,19.77
2023-02-27T03:50:55.471Z,19.78
2023-02-27T03:51:55.450Z,19.78
2023-02-27T03:52:55.435Z,19.77
2023-02-27T03:53:54.447Z,19.77
2023-02-27T03:54:55.532Z,19.78
2023-02-27T03:55:55.579Z,19.77
2023-02-27T03:56:55.640Z,19.77
2023-02-27T03:57:54.651Z,19.78
2023-02-27T03:58:55.743Z,19.77
2023-02-27T03:59:54.747Z,19.77
2023-02-27T04:00:55.818Z,19.74
2023-02-27T04:01:55.932Z,19.77
2023-02-27T04:02:55.991Z,19.76
2023-02-27T04:03:55.960Z,19.77
2023-02-27T04:04:56.044Z,19.78
2023-02-27T04:05:55.167Z,19.76
2023-02-27T04:06:55.131Z,19.77
2023-02-27T04:07:55.196Z,19.76
2023-02-27T04:08:56.237Z,19.76
2023-02-27T04:09:56.292Z,19.74
2023-02-27T04:10:56.389Z,19.76
2023-02-27T04:11:56.390Z,19.76
2023-02-27T04:12:56.425Z,19.73
2023-02-27T04:13:56.499Z,19.76
2023-02-27T04:14:56.531Z,19.74
2023-02-27T04:15:56.678Z,19.77
2023-02-27T04:16:56.675Z,19.77
2023-02-27T04:17:56.672Z,19.76
2023-02-27T04:18:57.009Z,19.76
2023-02-27T04:19:56.803Z,19.77
2023-02-27T04:20:56.883Z,19.74
2023-02-27T04:21:55.903Z,19.77
2023-02-27T04:22:56.930Z,19.76
2023-02-27T04:23:55.981Z,19.76
2023-02-27T04:24:57.059Z,19.77
2023-02-27T04:25:57.162Z,19.76
2023-02-27T04:26:57.166Z,19.73
2023-02-27T04:27:57.224Z,19.76
2023-02-27T04:28:57.326Z,19.77
2023-02-27T04:29:57.323Z,19.76
2023-02-27T04:30:57.449Z,19.77
2023-02-27T04:31:57.636Z,19.74
2023-02-27T04:32:57.474Z,19.74
2023-02-27T04:33:57.524Z,19.74
2023-02-27T04:34:57.565Z,19.74
2023-02-27T04:35:57.650Z,19.74
2023-02-27T04:36:57.868Z,19.74
2023-02-27T04:37:57.703Z,19.73
2023-02-27T04:38:57.812Z,19.76
2023-02-27T04:39:58.389Z,19.76
2023-02-27T04:40:57.899Z,19.76
2023-02-27T04:41:57.918Z,19.74
2023-02-27T04:42:57.979Z,19.74
2023-02-27T04:43:57.043Z,19.76
2023-02-27T04:44:57.095Z,19.73
2023-02-27T04:45:57.220Z,19.76
2023-02-27T04:46:58.202Z,19.73
2023-02-27T04:47:58.267Z,19.76
2023-02-27T04:48:58.306Z,19.73
2023-02-27T04:49:58.347Z,19.76
2023-02-27T04:50:58.423Z,19.76
2023-02-27T04:51:58.491Z,19.76
2023-02-27T04:52:57.514Z,19.73
2023-02-27T04:53:58.555Z,19.76
2023-02-27T04:54:57.614Z,19.76
2023-02-27T04:55:58.696Z,19.76
2023-02-27T04:56:58.733Z,19.74
2023-02-27T04:57:58.785Z,19.74
2023-02-27T04:58:58.844Z,19.74
2023-02-27T04:59:58.876Z,19.73
2023-02-27T05:00:59.048Z,19.76
2023-02-27T05:01:58.199Z,19.76
2023-02-27T05:02:59.140Z,19.74
2023-02-27T05:04:00.380Z,19.77
2023-02-27T05:04:59.156Z,19.74
2023-02-27T05:05:58.259Z,19.74
2023-02-27T05:06:59.298Z,19.74
2023-02-27T05:07:59.345Z,19.77
2023-02-27T05:08:59.372Z,19.76
2023-02-27T05:09:58.427Z,19.74
2023-02-27T05:10:59.490Z,19.76
2023-02-27T05:11:59.520Z,19.76
2023-02-27T05:12:59.660Z,19.76
2023-02-27T05:13:59.630Z,19.74
2023-02-27T05:14:59.729Z,19.76
2023-02-27T05:15:59.949Z,19.76
2023-02-27T05:16:58.795Z,19.73
2023-02-27T05:17:59.933Z,19.73
2023-02-27T05:18:59.930Z,19.73
2023-02-27T05:19:59.937Z,19.74
2023-02-27T05:21:00.025Z,19.76
2023-02-27T05:22:00.122Z,19.74
2023-02-27T05:22:59.102Z,19.73
2023-02-27T05:24:00.266Z,19.72
2023-02-27T05:25:00.193Z,19.73
2023-02-27T05:25:59.281Z,19.74
2023-02-27T05:27:00.327Z,19.74
2023-02-27T05:27:59.380Z,19.74
2023-02-27T05:29:00.426Z,19.73
2023-02-27T05:30:00.500Z,19.74
2023-02-27T05:31:00.568Z,19.74
2023-02-27T05:32:00.671Z,19.74
2023-02-27T05:33:00.648Z,19.74
2023-02-27T05:33:59.680Z,19.73
2023-02-27T05:35:00.735Z,19.73
2023-02-27T05:35:59.821Z,19.73
2023-02-27T05:37:00.924Z,19.74
2023-02-27T05:38:00.923Z,19.73
2023-02-27T05:39:00.961Z,19.74
2023-02-27T05:40:01.039Z,19.72
2023-02-27T05:41:01.067Z,19.74
2023-02-27T05:42:00.146Z,19.73
2023-02-27T05:43:00.191Z,19.74
2023-02-27T05:44:01.285Z,19.72
2023-02-27T05:45:01.296Z,19.73
2023-02-27T05:46:01.383Z,19.73
2023-02-27T05:47:01.425Z,19.73
2023-02-27T05:48:01.503Z,19.72
2023-02-27T05:49:01.530Z,19.72
2023-02-27T05:50:01.597Z,19.73
2023-02-27T05:51:01.677Z,19.72
2023-02-27T05:52:01.828Z,19.72
2023-02-27T05:53:01.769Z,19.72
2023-02-27T05:54:01.833Z,19.72
2023-02-27T05:55:01.894Z,19.73
2023-02-27T05:56:01.975Z,19.72
2023-02-27T05:57:02.009Z,19.69
2023-02-27T05:58:02.048Z,19.70
2023-02-27T05:59:02.108Z,19.69
2023-02-27T06:00:02.165Z,19.70
2023-02-27T06:01:01.259Z,19.69
2023-02-27T06:02:02.325Z,19.73
2023-02-27T06:03:02.385Z,19.73
2023-02-27T06:04:02.389Z,19.72
2023-02-27T06:05:02.494Z,19.72
2023-02-27T06:06:02.507Z,19.70
2023-02-27T06:07:02.560Z,19.69
2023-02-27T06:08:01.633Z,19.70
2023-02-27T06:09:02.656Z,19.73
2023-02-27T06:11:02.692Z,19.70
2023-02-27T06:12:02.724Z,19.69
2023-02-27T06:13:02.689Z,19.76
2023-02-27T06:14:02.684Z,19.72
2023-02-27T06:15:01.692Z,19.70
2023-02-27T06:16:02.667Z,19.73
2023-02-27T06:17:01.721Z,19.72
2023-02-27T06:18:01.649Z,19.72
2023-02-27T06:19:04.909Z,19.73
2023-02-27T06:20:01.628Z,19.73
2023-02-27T06:21:01.643Z,19.73
2023-02-27T06:22:01.617Z,19.73
2023-02-27T06:23:02.627Z,19.73
2023-02-27T06:24:02.625Z,19.73
2023-02-27T06:25:02.594Z,19.72
2023-02-27T06:26:02.597Z,19.76
2023-02-27T06:27:02.597Z,19.73
2023-02-27T06:28:02.599Z,19.77
2023-02-27T06:29:02.581Z,19.76
2023-02-27T06:30:02.552Z,19.77
2023-02-27T06:31:02.576Z,19.81
2023-02-27T06:32:01.568Z,19.86
2023-02-27T06:33:02.528Z,19.84
2023-02-27T06:34:01.522Z,19.86
2023-02-27T06:35:02.526Z,19.88
2023-02-27T06:36:02.521Z,19.95
2023-02-27T06:37:04.262Z,20.03
2023-02-27T06:38:01.488Z,19.94
2023-02-27T06:39:01.483Z,20.00
2023-02-27T06:40:02.469Z,20.11
2023-02-27T06:41:01.461Z,20.05
2023-02-27T06:42:02.445Z,20.12
2023-02-27T06:43:02.463Z,20.11
2023-02-27T06:44:01.469Z,20.10
2023-02-27T06:45:02.433Z,20.01
2023-02-27T06:46:02.530Z,20.12
2023-02-27T06:47:02.528Z,20.17
2023-02-27T06:48:01.432Z,20.18
2023-02-27T06:49:02.409Z,20.21
2023-02-27T06:50:01.414Z,20.29
2023-02-27T06:51:02.396Z,20.33
2023-02-27T06:52:02.379Z,20.33
2023-02-27T06:53:01.384Z,20.40
2023-02-27T06:54:01.372Z,20.49
2023-02-27T06:55:02.408Z,20.45
2023-02-27T06:56:02.369Z,20.48
2023-02-27T06:57:01.369Z,20.49
2023-02-27T06:58:02.347Z,20.56
2023-02-27T06:59:02.326Z,20.42
2023-02-27T07:00:02.354Z,20.48
2023-02-27T07:01:02.370Z,20.59
2023-02-27T07:02:02.305Z,20.60
2023-02-27T07:03:02.437Z,20.62
2023-02-27T07:04:02.300Z,20.63
2023-02-27T07:05:07.888Z,20.43
2023-02-27T07:06:02.278Z,20.07
2023-02-27T07:07:34.860Z,19.11
2023-02-27T07:08:02.262Z,18.82
2023-02-27T07:09:06.998Z,18.59
2023-02-27T07:10:02.270Z,18.55
2023-02-27T07:11:02.294Z,18.66
2023-02-27T07:12:01.222Z,18.71
2023-02-27T07:13:02.228Z,18.94
2023-02-27T07:14:02.206Z,19.19
2023-02-27T07:18:02.182Z,19.88
2023-02-27T07:19:02.180Z,20.00
2023-02-27T07:20:02.168Z,20.12
2023-02-27T07:21:02.161Z,20.25
2023-02-27T07:22:02.160Z,20.29
2023-02-27T07:30:02.100Z,20.82
2023-02-27T07:31:02.268Z,20.90
2023-02-27T07:32:02.140Z,20.87
2023-02-27T07:33:02.080Z,20.94
2023-02-27T07:34:02.058Z,21.04
2023-02-27T07:35:01.066Z,21.04
2023-02-27T07:36:02.089Z,21.08
2023-02-27T07:37:01.046Z,21.14
2023-02-27T07:38:02.069Z,21.15
2023-02-27T07:39:02.021Z,21.27
2023-02-27T07:40:02.028Z,21.29
2023-02-27T07:41:01.017Z,21.29
2023-02-27T07:42:01.997Z,21.42
2023-02-27T07:44:02.045Z,21.52
2023-02-27T07:45:01.983Z,21.52
2023-02-27T07:46:02.038Z,21.63
2023-02-27T07:47:02.011Z,21.52
2023-02-27T07:48:02.022Z,21.59
2023-02-27T07:49:01.955Z,21.53
2023-02-27T07:50:02.021Z,21.55
2023-02-27T07:51:02.081Z,21.69
2023-02-27T07:52:02.118Z,21.66
2023-02-27T07:53:02.461Z,21.76
2023-02-27T07:54:02.191Z,21.66
2023-02-27T07:55:02.284Z,21.65
2023-02-27T07:56:02.295Z,21.63
2023-02-27T07:57:02.345Z,21.56
2023-02-27T07:58:01.456Z,21.53
2023-02-27T07:59:02.454Z,21.67
2023-02-27T08:00:02.412Z,21.65
2023-02-27T08:01:02.446Z,21.72
2023-02-27T08:02:02.445Z,21.65
2023-02-27T08:03:02.524Z,21.76
2023-02-27T08:04:02.530Z,21.67
2023-02-27T08:05:02.530Z,21.63
2023-02-27T08:06:02.683Z,21.69
2023-02-27T08:08:02.512Z,21.80
2023-02-27T08:09:02.499Z,21.65
2023-02-27T08:10:02.506Z,21.79
2023-02-27T08:11:02.510Z,21.77
2023-02-27T08:12:02.522Z,21.80
2023-02-27T08:13:01.580Z,21.94
2023-02-27T08:14:03.301Z,21.87
2023-02-27T08:15:02.663Z,21.97
2023-02-27T08:16:02.748Z,21.80
2023-02-27T08:17:01.740Z,21.89
2023-02-27T08:18:02.755Z,21.97
2023-02-27T08:20:02.815Z,22.11
2023-02-27T08:21:02.860Z,22.12
2023-02-27T08:22:01.919Z,22.08
2023-02-27T08:23:02.982Z,22.18
2023-02-27T08:24:03.035Z,22.19
2023-02-27T08:25:03.089Z,22.22
2023-02-27T08:26:03.153Z,22.18
2023-02-27T08:27:03.218Z,22.17
2023-02-27T08:28:03.280Z,22.22
2023-02-27T08:29:03.333Z,22.19
2023-02-27T08:30:03.395Z,22.21
2023-02-27T08:31:03.524Z,22.18
2023-02-27T08:32:02.616Z,22.25
2023-02-27T08:33:03.586Z,22.27
2023-02-27T08:34:10.282Z,22.34
2023-02-27T08:35:03.646Z,22.29
2023-02-27T08:36:02.766Z,22.22
2023-02-27T08:37:02.637Z,22.27
2023-02-27T08:38:02.621Z,22.38
2023-02-27T08:39:03.617Z,22.35
2023-02-27T08:40:02.610Z,22.34
2023-02-27T08:41:02.602Z,22.38
2023-02-27T08:42:03.636Z,22.44
2023-02-27T08:43:03.615Z,22.35
2023-02-27T08:44:03.568Z,22.29
2023-02-27T08:45:03.573Z,22.34
2023-02-27T08:46:03.595Z,22.35
2023-02-27T08:47:03.547Z,22.34
2023-02-27T08:48:02.979Z,22.34
2023-02-27T08:49:03.535Z,22.34
2023-02-27T08:50:03.607Z,22.31
2023-02-27T08:51:03.527Z,22.31
2023-02-27T08:52:02.537Z,22.29
2023-02-27T08:53:03.976Z,22.28
2023-02-27T08:54:03.496Z,22.27
2023-02-27T08:55:03.484Z,22.22
2023-02-27T08:56:02.471Z,22.19
2023-02-27T08:57:03.468Z,22.19
2023-02-27T08:58:03.480Z,22.19
2023-02-27T08:59:03.460Z,22.11
2023-02-27T09:00:03.599Z,22.12
2023-02-27T09:01:03.510Z,22.08
2023-02-27T09:02:03.429Z,22.04
2023-02-27T09:03:03.482Z,22.05
2023-02-27T09:04:03.415Z,22.03
2023-02-27T09:05:02.406Z,22.03
2023-02-27T09:06:02.405Z,22.03
2023-02-27T09:07:03.392Z,22.00
2023-02-27T09:08:03.824Z,21.97
2023-02-27T09:09:02.389Z,21.97
2023-02-27T09:10:03.392Z,21.97
2023-02-27T09:11:03.379Z,21.94
2023-02-27T09:12:03.371Z,21.94
2023-02-27T09:13:02.383Z,21.93
2023-02-27T09:14:03.351Z,21.91
2023-02-27T09:15:03.346Z,21.91
2023-02-27T09:16:03.323Z,21.93
2023-02-27T09:17:03.326Z,21.91
2023-02-27T09:18:03.488Z,21.90
2023-02-27T09:19:03.329Z,21.90
2023-02-27T09:20:03.333Z,21.86
2023-02-27T09:21:03.373Z,21.87
2023-02-27T09:22:03.366Z,21.89
2023-02-27T09:23:03.391Z,21.82
2023-02-27T09:24:13.746Z,21.89
2023-02-27T09:25:03.400Z,21.84
2023-02-27T09:26:02.402Z,21.84
2023-02-27T09:27:03.383Z,21.83
2023-02-27T09:28:03.387Z,21.86
2023-02-27T09:29:03.359Z,21.89
2023-02-27T09:30:03.393Z,21.82
2023-02-27T09:31:03.356Z,21.86
2023-02-27T09:32:02.522Z,21.87
2023-02-27T09:33:03.490Z,21.83
2023-02-27T09:34:02.335Z,21.83
2023-02-27T09:35:03.327Z,21.84
2023-02-27T09:36:03.473Z,21.83
2023-02-27T09:37:03.308Z,21.83
2023-02-27T09:39:03.280Z,21.83
2023-02-27T09:40:03.300Z,21.83
2023-02-27T09:41:03.276Z,21.82
2023-02-27T09:42:03.280Z,21.74
2023-02-27T09:43:03.548Z,21.76
2023-02-27T09:44:02.257Z,21.69
2023-02-27T09:45:05.855Z,21.73
2023-02-27T09:46:03.452Z,21.73
2023-02-27T09:47:04.006Z,21.89
2023-02-27T09:48:03.221Z,21.87
2023-02-27T09:49:02.209Z,21.93
2023-02-27T09:50:02.203Z,21.90
2023-02-27T09:51:03.207Z,21.89
2023-02-27T09:52:02.183Z,21.90
2023-02-27T09:53:02.188Z,21.90
2023-02-27T09:54:03.182Z,21.99
2023-02-27T09:55:03.178Z,21.97
2023-02-27T09:56:03.204Z,21.89
2023-02-27T09:57:03.154Z,22.01
2023-02-27T09:58:03.499Z,22.01
2023-02-27T09:59:02.130Z,22.07
2023-02-27T10:00:02.140Z,22.21
2023-02-27T10:01:02.121Z,22.27
2023-02-27T10:02:02.178Z,22.27
2023-02-27T10:03:02.244Z,22.27
2023-02-27T10:04:03.225Z,22.27
2023-02-27T10:05:03.266Z,22.44
2023-02-27T10:06:02.354Z,22.41
2023-02-27T10:07:03.401Z,22.46
2023-02-27T10:08:03.515Z,22.38
2023-02-27T10:09:03.480Z,22.51
2023-02-27T10:10:03.514Z,22.60
2023-02-27T10:11:03.563Z,22.66
2023-02-27T10:12:04.138Z,22.55
2023-02-27T10:13:03.654Z,22.60
2023-02-27T10:14:03.670Z,22.69
2023-02-27T10:15:02.687Z,22.62
2023-02-27T10:16:02.730Z,22.67
2023-02-27T10:17:03.836Z,22.76
2023-02-27T10:18:13.009Z,22.74
2023-02-27T10:19:03.784Z,22.77
2023-02-27T10:20:03.788Z,22.82
2023-02-27T10:21:03.765Z,22.76
2023-02-27T10:22:03.766Z,22.77
2023-02-27T10:23:03.746Z,22.89
2023-02-27T10:24:05.583Z,22.91
2023-02-27T10:25:03.754Z,22.89
2023-02-27T10:26:02.734Z,22.97
2023-02-27T10:27:03.734Z,22.83
2023-02-27T10:28:02.764Z,22.96
2023-02-27T10:29:02.718Z,22.87
2023-02-27T10:30:03.716Z,22.93
2023-02-27T10:31:03.780Z,22.97
2023-02-27T10:32:03.783Z,23.06
2023-02-27T10:33:02.692Z,23.07
2023-02-27T10:34:02.719Z,23.08
2023-02-27T10:35:03.670Z,23.13
2023-02-27T10:36:03.837Z,23.04
2023-02-27T10:37:02.657Z,23.03
2023-02-27T10:38:03.651Z,23.15
2023-02-27T10:39:02.674Z,23.08
2023-02-27T10:40:02.691Z,23.15
2023-02-27T10:41:03.642Z,23.15
2023-02-27T10:42:03.632Z,23.14
2023-02-27T10:43:06.111Z,23.06
2023-02-27T10:44:03.691Z,23.17
2023-02-27T10:45:03.659Z,23.07
2023-02-27T10:46:03.665Z,23.11
2023-02-27T10:47:03.605Z,23.14
2023-02-27T10:48:03.589Z,23.17
2023-02-27T10:49:04.039Z,23.15
2023-02-27T10:50:03.568Z,23.15
2023-02-27T10:51:03.595Z,23.15
2023-02-27T10:52:03.575Z,23.04
2023-02-27T10:53:02.540Z,23.21
2023-02-27T10:54:03.553Z,23.11
2023-02-27T10:55:03.558Z,23.22
2023-02-27T10:56:03.605Z,23.22
2023-02-27T10:57:03.522Z,23.21
2023-02-27T10:58:03.511Z,23.19
2023-02-27T10:59:03.507Z,23.24
2023-02-27T11:00:02.532Z,23.15
2023-02-27T11:01:03.479Z,23.22
2023-02-27T11:02:02.478Z,23.21
2023-02-27T11:03:03.459Z,23.32
2023-02-27T11:04:03.453Z,23.34
2023-02-27T11:05:02.456Z,23.31
2023-02-27T11:06:03.455Z,23.34
2023-02-27T11:07:02.424Z,23.34
2023-02-27T11:08:03.435Z,23.37
2023-02-27T11:09:03.428Z,23.41
2023-02-27T11:10:03.418Z,23.35
2023-02-27T11:11:03.413Z,23.32
2023-02-27T11:12:03.401Z,23.32
2023-02-27T11:13:03.393Z,23.42
2023-02-27T11:14:03.398Z,23.41
2023-02-27T11:15:03.379Z,23.44
2023-02-27T11:16:03.578Z,23.48
2023-02-27T11:17:03.380Z,23.48
2023-02-27T11:18:02.353Z,23.44
2023-02-27T11:19:03.347Z,23.51
2023-02-27T11:20:03.339Z,23.55
2023-02-27T11:21:03.349Z,23.42
2023-02-27T11:22:03.325Z,23.49
2023-02-27T11:23:03.333Z,23.53
2023-02-27T11:24:03.367Z,23.55
2023-02-27T11:25:04.298Z,23.49
2023-02-27T11:26:03.505Z,23.61
2023-02-27T11:27:03.569Z,23.52
2023-02-27T11:28:03.635Z,23.53
2023-02-27T11:29:02.703Z,23.62
2023-02-27T11:30:03.755Z,23.53
2023-02-27T11:31:03.895Z,23.61
2023-02-27T11:32:03.925Z,23.58
2023-02-27T11:33:02.945Z,23.52
2023-02-27T11:34:03.020Z,23.63
2023-02-27T11:35:04.071Z,23.42
2023-02-27T11:36:04.134Z,23.49
2023-02-27T11:37:04.092Z,23.31
2023-02-27T11:38:03.157Z,23.14
2023-02-27T11:39:04.186Z,23.01
2023-02-27T11:40:04.215Z,22.79
2023-02-27T11:41:03.286Z,22.85
2023-02-27T11:42:04.308Z,22.73
2023-02-27T11:43:04.374Z,22.76
2023-02-27T11:44:04.540Z,22.69
2023-02-27T11:45:04.458Z,22.76
2023-02-27T11:46:36.689Z,22.67
2023-02-27T11:47:04.504Z,22.85
2023-02-27T11:48:03.529Z,22.89
2023-02-27T11:49:03.469Z,22.85
2023-02-27T11:50:04.473Z,22.86
2023-02-27T11:51:04.456Z,22.82
2023-02-27T11:52:04.453Z,22.80
2023-02-27T11:53:03.450Z,22.77
2023-02-27T11:54:03.442Z,22.70
2023-02-27T11:55:04.425Z,22.62
2023-02-27T11:56:04.422Z,22.62
2023-02-27T11:57:03.427Z,22.62
2023-02-27T11:58:04.414Z,22.59
2023-02-27T11:59:04.395Z,22.60
2023-02-27T12:00:04.393Z,22.63
2023-02-27T12:01:04.378Z,22.64
2023-02-27T12:02:04.377Z,22.69
2023-02-27T12:03:04.405Z,22.73
2023-02-27T12:04:03.446Z,22.82
2023-02-27T12:05:04.358Z,22.79
2023-02-27T12:06:04.346Z,22.80
2023-02-27T12:07:04.344Z,22.82
2023-02-27T12:08:04.343Z,22.87
2023-02-27T12:09:04.360Z,22.86
2023-02-27T12:10:04.338Z,22.91
2023-02-27T12:11:14.836Z,22.91
2023-02-27T12:12:04.305Z,22.96
2023-02-27T12:13:04.311Z,22.93
2023-02-27T12:14:04.293Z,22.93
2023-02-27T12:15:04.418Z,22.90
2023-02-27T12:16:04.382Z,22.93
2023-02-27T12:17:04.275Z,22.93
2023-02-27T12:18:03.257Z,22.93
2023-02-27T12:19:04.276Z,22.91
2023-02-27T12:20:04.271Z,22.89
2023-02-27T12:21:04.248Z,22.85
2023-02-27T12:22:03.231Z,22.91
2023-02-27T12:23:04.222Z,23.03
2023-02-27T12:24:04.221Z,23.06
2023-02-27T12:25:04.209Z,22.97
2023-02-27T12:26:03.206Z,23.06
2023-02-27T12:27:04.192Z,22.97
2023-02-27T12:28:04.181Z,23.04
2023-02-27T12:29:04.224Z,23.06
2023-02-27T12:30:04.174Z,23.15
2023-02-27T12:31:04.166Z,23.13
2023-02-27T12:32:04.286Z,23.18
2023-02-27T12:33:04.145Z,23.10
2023-02-27T12:34:04.154Z,23.17
2023-02-27T12:35:04.134Z,23.15
2023-02-27T12:36:04.233Z,23.19
2023-02-27T12:37:04.138Z,23.25
2023-02-27T12:38:03.230Z,23.28
2023-02-27T12:39:04.124Z,23.24
2023-02-27T12:40:03.113Z,23.21
2023-02-27T12:41:03.122Z,23.17
2023-02-27T12:42:04.125Z,23.15
2023-02-27T12:43:04.133Z,23.15
2023-02-27T12:44:04.176Z,23.07
2023-02-27T12:45:04.186Z,23.08
2023-02-27T12:46:04.248Z,23.04
2023-02-27T12:47:04.271Z,23.01
2023-02-27T12:48:04.314Z,23.01
2023-02-27T12:49:04.364Z,22.94
2023-02-27T12:50:04.376Z,22.91
2023-02-27T12:51:04.410Z,22.89
2023-02-27T12:52:04.516Z,22.86
2023-02-27T12:53:04.522Z,22.83
2023-02-27T12:54:04.593Z,22.83
2023-02-27T12:55:04.612Z,22.77
2023-02-27T12:56:03.658Z,22.80
2023-02-27T12:57:04.714Z,22.76
2023-02-27T12:58:04.769Z,22.74
2023-02-27T12:59:04.843Z,22.70
2023-02-27T13:00:04.882Z,22.70
2023-02-27T13:01:03.995Z,22.69
2023-02-27T13:02:04.971Z,22.66
2023-02-27T13:03:05.035Z,22.66
2023-02-27T13:04:05.140Z,22.66
2023-02-27T13:05:05.147Z,22.64
2023-02-27T13:06:05.204Z,22.53
2023-02-27T13:07:05.259Z,22.60
2023-02-27T13:08:05.356Z,22.56
2023-02-27T13:09:05.396Z,22.56
2023-02-27T13:10:04.457Z,22.56
2023-02-27T13:11:05.505Z,22.56
2023-02-27T13:12:05.561Z,22.56